Paterson, New South Wales

4:04 AM AEST on April 28, 2015 (GMT +1000)
Stockade Hill-East Maitland | | Change Station
CLOSE
Current Station
Personal Weather Station
Location: East Maitland, NEW SOUTH WALES
Elevation: 110 ft
Nearby Weather Stations

Elev 110 ft 32.75 °S, 151.58 °E | Updated 4 minutes ago

Overcast
Overcast
52.7 °F
Feels Like 52.7 °F
N
0.5
Wind Variable Wind from West
Gusts 2.2 mph

Today
High -- | Low -- °F
--% Chance of Precip.
Yesterday
High -- | Low -- °F
Precip. -- in
6:23 AM 5:18 PM
Waxing Gibbous, 66% visible
Pressure 30.18 in
Visibility 6.2 miles
Clouds Scattered Clouds 5700 ft
Overcast 7500 ft
Dew Point 50 °F
Humidity 89%
Rainfall 0.00 in
Snow Depth Not available.
UV 0 out of 12
Pollen Not available.
Air Quality Not available.
Flu Activity Not available.
METAR YWLM 271800Z AUTO 30009KT 9999 // SCT057 OVC075 12/10 Q1022

More Conditions Fewer Conditions

Pressure 30.18 in
Visibility 6.2 miles
Clouds Scattered Clouds 5700 ft
Overcast 7500 ft
Dew Point 50 °F
Humidity 89%
Rainfall 0.00 in
Snow Depth Not available.
UV 0 out of 12
Pollen Not available.
Air Quality Not available.
Flu Activity Not available.
METAR YWLM 271800Z AUTO 30009KT 9999 // SCT057 OVC075 12/10 Q1022

More Conditions Fewer Conditions

10-Day Weather Forecast

Almanac

Astronomy

Apr. 28, 2015 Rise Set
Actual Time
Civil Twilight
Nautical Twilight
Astronomical Twilight
Moon
Length of Visible Light
Length of Day
Tomorrow will be .
, % of the Moon is Illuminated

Today's Extremes

Country Highs Country Lows

Community

WunderPhotos

Upload Photos

1,817,386 photos uploaded!

WunderBlogs® & News

Nearby

Air Quality

  Air Quality AQ Index Pollutant
Not available.

Snow Depth

Station Depth Elevation

Earthquake Activity

City Distance Mag. Time & Date
Minimum magnitude displayed is 2.5.

Coastal Water Temperatures

Place Temperature

Stations

Nearby Weather Stations

Station Location Temp. Windchill Dew Point Humidity Wind Precip. Elev Updated Type